sensor_id;sensor_type;location;lat;lon;timestamp;P1;durP1;ratioP1;P2;durP2;ratioP2
52534;SDS011;38443;53.164;5.802;2023-02-13T00:00:12;26.45;;;14.05;;
52534;SDS011;38443;53.164;5.802;2023-02-13T00:02:40;30.67;;;14.63;;
52534;SDS011;38443;53.164;5.802;2023-02-13T00:07:31;31.13;;;16.10;;
52534;SDS011;38443;53.164;5.802;2023-02-13T00:12:22;29.05;;;14.93;;
52534;SDS011;38443;53.164;5.802;2023-02-13T00:17:12;27.80;;;14.32;;
52534;SDS011;38443;53.164;5.802;2023-02-13T00:22:03;32.85;;;14.93;;
52534;SDS011;38443;53.164;5.802;2023-02-13T00:26:54;29.10;;;15.00;;
52534;SDS011;38443;53.164;5.802;2023-02-13T00:31:45;29.85;;;15.20;;
52534;SDS011;38443;53.164;5.802;2023-02-13T00:36:35;23.60;;;14.50;;
52534;SDS011;38443;53.164;5.802;2023-02-13T00:41:26;29.30;;;15.10;;
52534;SDS011;38443;53.164;5.802;2023-02-13T00:46:17;29.70;;;15.68;;
52534;SDS011;38443;53.164;5.802;2023-02-13T00:51:08;27.52;;;14.32;;
52534;SDS011;38443;53.164;5.802;2023-02-13T00:53:35;26.48;;;14.40;;
52534;SDS011;38443;53.164;5.802;2023-02-13T00:56:02;31.08;;;14.85;;
52534;SDS011;38443;53.164;5.802;2023-02-13T00:58:28;27.83;;;14.63;;
52534;SDS011;38443;53.164;5.802;2023-02-13T01:03:19;30.08;;;14.68;;
52534;SDS011;38443;53.164;5.802;2023-02-13T01:05:45;28.27;;;14.88;;
52534;SDS011;38443;53.164;5.802;2023-02-13T01:10:37;29.30;;;14.13;;
52534;SDS011;38443;53.164;5.802;2023-02-13T01:13:04;31.15;;;14.82;;
52534;SDS011;38443;53.164;5.802;2023-02-13T01:15:30;27.33;;;14.55;;
52534;SDS011;38443;53.164;5.802;2023-02-13T01:17:56;28.13;;;15.32;;
52534;SDS011;38443;53.164;5.802;2023-02-13T01:22:48;27.17;;;15.80;;
52534;SDS011;38443;53.164;5.802;2023-02-13T01:27:38;26.60;;;16.15;;
52534;SDS011;38443;53.164;5.802;2023-02-13T01:32:34;28.42;;;15.60;;
52534;SDS011;38443;53.164;5.802;2023-02-13T01:37:24;29.85;;;15.00;;
52534;SDS011;38443;53.164;5.802;2023-02-13T01:42:23;29.23;;;14.52;;
52534;SDS011;38443;53.164;5.802;2023-02-13T01:44:51;28.55;;;15.15;;
52534;SDS011;38443;53.164;5.802;2023-02-13T01:47:31;34.92;;;15.80;;
52534;SDS011;38443;53.164;5.802;2023-02-13T01:52:53;33.28;;;16.80;;
52534;SDS011;38443;53.164;5.802;2023-02-13T01:55:25;28.48;;;15.35;;
52534;SDS011;38443;53.164;5.802;2023-02-13T01:58:00;30.27;;;15.02;;
52534;SDS011;38443;53.164;5.802;2023-02-13T02:00:30;30.33;;;16.65;;
52534;SDS011;38443;53.164;5.802;2023-02-13T02:05:28;34.88;;;15.43;;
52534;SDS011;38443;53.164;5.802;2023-02-13T02:07:56;32.05;;;16.80;;
52534;SDS011;38443;53.164;5.802;2023-02-13T02:10:23;30.25;;;15.45;;
52534;SDS011;38443;53.164;5.802;2023-02-13T02:15:22;26.08;;;15.32;;
52534;SDS011;38443;53.164;5.802;2023-02-13T02:23:37;29.02;;;14.55;;
52534;SDS011;38443;53.164;5.802;2023-02-13T02:48:30;32.10;;;15.23;;
52534;SDS011;38443;53.164;5.802;2023-02-13T02:56:52;31.67;;;16.38;;
52534;SDS011;38443;53.164;5.802;2023-02-13T02:59:22;30.75;;;16.30;;
52534;SDS011;38443;53.164;5.802;2023-02-13T03:02:08;31.45;;;16.33;;
52534;SDS011;38443;53.164;5.802;2023-02-13T03:04:54;31.63;;;15.05;;
52534;SDS011;38443;53.164;5.802;2023-02-13T03:07:42;33.33;;;16.35;;
52534;SDS011;38443;53.164;5.802;2023-02-13T03:13:02;35.05;;;16.73;;
52534;SDS011;38443;53.164;5.802;2023-02-13T03:16:00;36.13;;;16.83;;
52534;SDS011;38443;53.164;5.802;2023-02-13T03:18:46;31.13;;;16.17;;
52534;SDS011;38443;53.164;5.802;2023-02-13T03:24:32;31.10;;;16.08;;
52534;SDS011;38443;53.164;5.802;2023-02-13T03:30:17;31.60;;;16.83;;
52534;SDS011;38443;53.164;5.802;2023-02-13T03:35:48;31.55;;;16.55;;
52534;SDS011;38443;53.164;5.802;2023-02-13T03:38:46;35.83;;;16.27;;
52534;SDS011;38443;53.164;5.802;2023-02-13T03:46:50;31.02;;;16.73;;
52534;SDS011;38443;53.164;5.802;2023-02-13T03:49:41;32.15;;;16.17;;
52534;SDS011;38443;53.164;5.802;2023-02-13T03:55:03;28.42;;;14.90;;
52534;SDS011;38443;53.164;5.802;2023-02-13T03:57:52;30.75;;;15.85;;
52534;SDS011;38443;53.164;5.802;2023-02-13T04:00:42;30.35;;;15.20;;
52534;SDS011;38443;53.164;5.802;2023-02-13T04:03:18;28.90;;;14.35;;
52534;SDS011;38443;53.164;5.802;2023-02-13T04:06:11;28.63;;;15.07;;
52534;SDS011;38443;53.164;5.802;2023-02-13T04:08:40;32.85;;;17.52;;
52534;SDS011;38443;53.164;5.802;2023-02-13T04:13:36;31.42;;;16.70;;
52534;SDS011;38443;53.164;5.802;2023-02-13T04:16:12;29.00;;;14.70;;
52534;SDS011;38443;53.164;5.802;2023-02-13T04:18:42;31.17;;;15.85;;
52534;SDS011;38443;53.164;5.802;2023-02-13T04:23:33;25.70;;;13.15;;
52534;SDS011;38443;53.164;5.802;2023-02-13T04:28:26;29.15;;;15.13;;
52534;SDS011;38443;53.164;5.802;2023-02-13T04:33:16;34.58;;;15.13;;
52534;SDS011;38443;53.164;5.802;2023-02-13T04:38:07;28.17;;;14.70;;
52534;SDS011;38443;53.164;5.802;2023-02-13T04:42:59;29.60;;;14.55;;
52534;SDS011;38443;53.164;5.802;2023-02-13T04:45:25;28.90;;;14.57;;
52534;SDS011;38443;53.164;5.802;2023-02-13T04:50:16;32.60;;;15.07;;
52534;SDS011;38443;53.164;5.802;2023-02-13T04:52:42;32.90;;;15.48;;
52534;SDS011;38443;53.164;5.802;2023-02-13T04:57:33;32.70;;;17.55;;
52534;SDS011;38443;53.164;5.802;2023-02-13T05:02:24;31.08;;;15.00;;
52534;SDS011;38443;53.164;5.802;2023-02-13T05:07:14;31.35;;;15.90;;
52534;SDS011;38443;53.164;5.802;2023-02-13T05:12:05;31.70;;;14.60;;
52534;SDS011;38443;53.164;5.802;2023-02-13T05:16:56;29.77;;;14.20;;
52534;SDS011;38443;53.164;5.802;2023-02-13T05:21:46;29.93;;;15.07;;
52534;SDS011;38443;53.164;5.802;2023-02-13T05:24:30;33.60;;;16.58;;
52534;SDS011;38443;53.164;5.802;2023-02-13T05:29:21;35.28;;;15.88;;
52534;SDS011;38443;53.164;5.802;2023-02-13T05:34:12;34.67;;;16.20;;
52534;SDS011;38443;53.164;5.802;2023-02-13T05:39:04;29.70;;;14.38;;
52534;SDS011;38443;53.164;5.802;2023-02-13T05:41:30;34.22;;;17.13;;
52534;SDS011;38443;53.164;5.802;2023-02-13T05:46:20;30.13;;;15.23;;
52534;SDS011;38443;53.164;5.802;2023-02-13T05:51:11;31.20;;;15.10;;
52534;SDS011;38443;53.164;5.802;2023-02-13T05:56:03;36.47;;;17.35;;
52534;SDS011;38443;53.164;5.802;2023-02-13T05:58:29;38.22;;;18.42;;
52534;SDS011;38443;53.164;5.802;2023-02-13T06:03:25;32.60;;;16.02;;
52534;SDS011;38443;53.164;5.802;2023-02-13T06:05:52;33.45;;;16.20;;
52534;SDS011;38443;53.164;5.802;2023-02-13T06:08:19;38.65;;;17.48;;
52534;SDS011;38443;53.164;5.802;2023-02-13T06:13:11;34.25;;;16.38;;
52534;SDS011;38443;53.164;5.802;2023-02-13T06:18:01;36.40;;;17.42;;
52534;SDS011;38443;53.164;5.802;2023-02-13T06:22:52;32.83;;;17.13;;
52534;SDS011;38443;53.164;5.802;2023-02-13T06:27:43;36.85;;;16.60;;
52534;SDS011;38443;53.164;5.802;2023-02-13T06:32:35;35.95;;;17.13;;
52534;SDS011;38443;53.164;5.802;2023-02-13T06:37:25;35.83;;;16.75;;
52534;SDS011;38443;53.164;5.802;2023-02-13T06:42:16;39.67;;;18.98;;
52534;SDS011;38443;53.164;5.802;2023-02-13T06:44:42;36.13;;;18.92;;
52534;SDS011;38443;53.164;5.802;2023-02-13T06:49:33;39.22;;;18.50;;
52534;SDS011;38443;53.164;5.802;2023-02-13T06:54:23;42.05;;;18.52;;
52534;SDS011;38443;53.164;5.802;2023-02-13T06:59:14;38.22;;;17.95;;
52534;SDS011;38443;53.164;5.802;2023-02-13T07:04:05;44.33;;;20.35;;
52534;SDS011;38443;53.164;5.802;2023-02-13T07:08:55;40.28;;;19.05;;
52534;SDS011;38443;53.164;5.802;2023-02-13T07:13:47;35.97;;;17.98;;
52534;SDS011;38443;53.164;5.802;2023-02-13T07:18:38;42.05;;;18.10;;
52534;SDS011;38443;53.164;5.802;2023-02-13T07:23:29;37.08;;;17.23;;
52534;SDS011;38443;53.164;5.802;2023-02-13T07:28:23;38.88;;;18.75;;
52534;SDS011;38443;53.164;5.802;2023-02-13T07:33:13;43.67;;;18.10;;
52534;SDS011;38443;53.164;5.802;2023-02-13T07:38:05;42.58;;;19.88;;
52534;SDS011;38443;53.164;5.802;2023-02-13T07:42:58;42.42;;;19.27;;
52534;SDS011;38443;53.164;5.802;2023-02-13T07:45:25;36.95;;;19.10;;
52534;SDS011;38443;53.164;5.802;2023-02-13T07:50:18;34.85;;;17.92;;
52534;SDS011;38443;53.164;5.802;2023-02-13T07:55:16;38.60;;;19.70;;
52534;SDS011;38443;53.164;5.802;2023-02-13T08:00:07;45.22;;;19.52;;
52534;SDS011;38443;53.164;5.802;2023-02-13T08:04:58;41.20;;;17.65;;
52534;SDS011;38443;53.164;5.802;2023-02-13T08:09:48;37.67;;;17.48;;
52534;SDS011;38443;53.164;5.802;2023-02-13T08:12:33;35.45;;;19.08;;
52534;SDS011;38443;53.164;5.802;2023-02-13T08:14:59;38.72;;;19.10;;
52534;SDS011;38443;53.164;5.802;2023-02-13T08:19:50;35.30;;;16.50;;
52534;SDS011;38443;53.164;5.802;2023-02-13T08:24:41;39.88;;;17.25;;
52534;SDS011;38443;53.164;5.802;2023-02-13T08:29:31;33.28;;;16.80;;
52534;SDS011;38443;53.164;5.802;2023-02-13T08:31:58;39.13;;;17.73;;
52534;SDS011;38443;53.164;5.802;2023-02-13T08:36:49;34.65;;;17.17;;
52534;SDS011;38443;53.164;5.802;2023-02-13T08:41:39;35.38;;;16.80;;
52534;SDS011;38443;53.164;5.802;2023-02-13T08:44:06;35.17;;;16.65;;
52534;SDS011;38443;53.164;5.802;2023-02-13T08:48:56;33.50;;;17.38;;
52534;SDS011;38443;53.164;5.802;2023-02-13T08:53:47;34.90;;;16.00;;
52534;SDS011;38443;53.164;5.802;2023-02-13T08:58:38;38.30;;;16.67;;
52534;SDS011;38443;53.164;5.802;2023-02-13T09:03:29;35.53;;;16.52;;
52534;SDS011;38443;53.164;5.802;2023-02-13T09:08:22;32.40;;;16.98;;
52534;SDS011;38443;53.164;5.802;2023-02-13T09:10:54;37.22;;;17.20;;
52534;SDS011;38443;53.164;5.802;2023-02-13T09:13:21;34.90;;;18.48;;
52534;SDS011;38443;53.164;5.802;2023-02-13T09:18:12;35.10;;;17.33;;
52534;SDS011;38443;53.164;5.802;2023-02-13T09:23:03;41.22;;;17.80;;
52534;SDS011;38443;53.164;5.802;2023-02-13T09:27:53;39.80;;;17.50;;
52534;SDS011;38443;53.164;5.802;2023-02-13T09:32:50;37.97;;;18.65;;
52534;SDS011;38443;53.164;5.802;2023-02-13T09:35:17;38.05;;;17.50;;
52534;SDS011;38443;53.164;5.802;2023-02-13T09:37:43;35.80;;;17.80;;
52534;SDS011;38443;53.164;5.802;2023-02-13T09:43:01;34.15;;;16.60;;
52534;SDS011;38443;53.164;5.802;2023-02-13T09:45:32;35.17;;;16.90;;
52534;SDS011;38443;53.164;5.802;2023-02-13T09:47:59;37.95;;;16.58;;
52534;SDS011;38443;53.164;5.802;2023-02-13T09:52:53;37.17;;;18.02;;
52534;SDS011;38443;53.164;5.802;2023-02-13T09:55:21;34.97;;;16.75;;
52534;SDS011;38443;53.164;5.802;2023-02-13T10:00:45;33.42;;;16.08;;
52534;SDS011;38443;53.164;5.802;2023-02-13T10:03:40;36.90;;;18.98;;
52534;SDS011;38443;53.164;5.802;2023-02-13T10:08:40;35.83;;;16.20;;
52534;SDS011;38443;53.164;5.802;2023-02-13T10:14:13;33.63;;;16.30;;
52534;SDS011;38443;53.164;5.802;2023-02-13T10:22:14;36.72;;;15.50;;
52534;SDS011;38443;53.164;5.802;2023-02-13T10:24:52;38.72;;;16.00;;
52534;SDS011;38443;53.164;5.802;2023-02-13T10:27:23;37.47;;;16.88;;
52534;SDS011;38443;53.164;5.802;2023-02-13T10:30:01;36.50;;;16.98;;
52534;SDS011;38443;53.164;5.802;2023-02-13T10:38:20;34.08;;;15.73;;
52534;SDS011;38443;53.164;5.802;2023-02-13T10:54:16;32.30;;;14.80;;
52534;SDS011;38443;53.164;5.802;2023-02-13T11:02:41;33.03;;;16.10;;
52534;SDS011;38443;53.164;5.802;2023-02-13T11:07:41;34.35;;;16.00;;
52534;SDS011;38443;53.164;5.802;2023-02-13T11:10:13;32.97;;;15.93;;
52534;SDS011;38443;53.164;5.802;2023-02-13T11:12:48;32.10;;;15.32;;
52534;SDS011;38443;53.164;5.802;2023-02-13T11:15:22;34.85;;;16.40;;
52534;SDS011;38443;53.164;5.802;2023-02-13T11:17:53;32.13;;;15.15;;
52534;SDS011;38443;53.164;5.802;2023-02-13T11:20:36;37.28;;;16.45;;
52534;SDS011;38443;53.164;5.802;2023-02-13T11:25:59;33.25;;;15.77;;
52534;SDS011;38443;53.164;5.802;2023-02-13T11:28:49;31.90;;;14.55;;
52534;SDS011;38443;53.164;5.802;2023-02-13T11:31:32;28.38;;;14.98;;
52534;SDS011;38443;53.164;5.802;2023-02-13T11:33:59;28.00;;;13.82;;
52534;SDS011;38443;53.164;5.802;2023-02-13T11:36:51;31.13;;;14.90;;
52534;SDS011;38443;53.164;5.802;2023-02-13T11:39:19;31.75;;;14.93;;
52534;SDS011;38443;53.164;5.802;2023-02-13T11:41:46;33.53;;;16.23;;
52534;SDS011;38443;53.164;5.802;2023-02-13T11:46:55;32.88;;;15.20;;
52534;SDS011;38443;53.164;5.802;2023-02-13T11:49:31;32.45;;;15.07;;
52534;SDS011;38443;53.164;5.802;2023-02-13T11:52:00;34.58;;;14.27;;
52534;SDS011;38443;53.164;5.802;2023-02-13T11:59:50;32.05;;;14.15;;
52534;SDS011;38443;53.164;5.802;2023-02-13T12:02:18;32.38;;;15.52;;
52534;SDS011;38443;53.164;5.802;2023-02-13T12:04:44;29.08;;;13.82;;
52534;SDS011;38443;53.164;5.802;2023-02-13T12:07:22;31.88;;;15.80;;
52534;SDS011;38443;53.164;5.802;2023-02-13T12:09:56;31.13;;;14.80;;
52534;SDS011;38443;53.164;5.802;2023-02-13T12:12:28;35.45;;;15.65;;
52534;SDS011;38443;53.164;5.802;2023-02-13T12:14:59;30.92;;;15.23;;
52534;SDS011;38443;53.164;5.802;2023-02-13T12:17:34;34.25;;;15.73;;
52534;SDS011;38443;53.164;5.802;2023-02-13T12:28:00;32.78;;;15.20;;
52534;SDS011;38443;53.164;5.802;2023-02-13T12:36:00;32.78;;;14.77;;
52534;SDS011;38443;53.164;5.802;2023-02-13T12:44:32;31.10;;;15.35;;
52534;SDS011;38443;53.164;5.802;2023-02-13T12:47:18;34.45;;;15.75;;
52534;SDS011;38443;53.164;5.802;2023-02-13T12:52:35;32.78;;;15.52;;
52534;SDS011;38443;53.164;5.802;2023-02-13T12:55:20;30.38;;;14.45;;
52534;SDS011;38443;53.164;5.802;2023-02-13T13:12:20;37.50;;;15.70;;
52534;SDS011;38443;53.164;5.802;2023-02-13T13:25:25;31.48;;;14.90;;
52534;SDS011;38443;53.164;5.802;2023-02-13T13:28:04;34.25;;;16.35;;
52534;SDS011;38443;53.164;5.802;2023-02-13T13:30:38;41.10;;;15.18;;
52534;SDS011;38443;53.164;5.802;2023-02-13T13:35:48;30.60;;;14.57;;
52534;SDS011;38443;53.164;5.802;2023-02-13T13:38:44;29.33;;;14.90;;
52534;SDS011;38443;53.164;5.802;2023-02-13T13:44:14;31.05;;;14.02;;
52534;SDS011;38443;53.164;5.802;2023-02-13T13:49:33;31.58;;;15.77;;
52534;SDS011;38443;53.164;5.802;2023-02-13T13:52:18;29.20;;;13.68;;
52534;SDS011;38443;53.164;5.802;2023-02-13T13:54:49;30.17;;;14.60;;
52534;SDS011;38443;53.164;5.802;2023-02-13T13:57:20;32.28;;;14.80;;
52534;SDS011;38443;53.164;5.802;2023-02-13T13:59:57;29.92;;;14.73;;
52534;SDS011;38443;53.164;5.802;2023-02-13T14:07:33;36.17;;;17.02;;
52534;SDS011;38443;53.164;5.802;2023-02-13T14:10:01;34.92;;;16.10;;
52534;SDS011;38443;53.164;5.802;2023-02-13T14:14:52;33.10;;;15.55;;
52534;SDS011;38443;53.164;5.802;2023-02-13T14:20:18;33.17;;;16.50;;
52534;SDS011;38443;53.164;5.802;2023-02-13T14:22:46;35.40;;;17.27;;
52534;SDS011;38443;53.164;5.802;2023-02-13T14:27:55;32.38;;;16.48;;
52534;SDS011;38443;53.164;5.802;2023-02-13T14:32:58;35.97;;;18.52;;
52534;SDS011;38443;53.164;5.802;2023-02-13T14:35:26;31.52;;;17.70;;
52534;SDS011;38443;53.164;5.802;2023-02-13T14:37:59;34.38;;;16.85;;
52534;SDS011;38443;53.164;5.802;2023-02-13T14:43:28;35.28;;;18.80;;
52534;SDS011;38443;53.164;5.802;2023-02-13T14:51:38;36.00;;;18.10;;
52534;SDS011;38443;53.164;5.802;2023-02-13T14:54:13;36.80;;;18.45;;
52534;SDS011;38443;53.164;5.802;2023-02-13T14:56:51;40.10;;;20.33;;
52534;SDS011;38443;53.164;5.802;2023-02-13T14:59:19;39.53;;;21.35;;
52534;SDS011;38443;53.164;5.802;2023-02-13T15:01:49;39.35;;;20.15;;
52534;SDS011;38443;53.164;5.802;2023-02-13T15:04:26;34.88;;;19.63;;
52534;SDS011;38443;53.164;5.802;2023-02-13T15:06:59;33.13;;;19.58;;
52534;SDS011;38443;53.164;5.802;2023-02-13T15:12:03;32.63;;;18.63;;
52534;SDS011;38443;53.164;5.802;2023-02-13T15:19:45;41.15;;;20.60;;
52534;SDS011;38443;53.164;5.802;2023-02-13T15:22:56;35.65;;;20.23;;
52534;SDS011;38443;53.164;5.802;2023-02-13T15:25:06;38.65;;;20.10;;
52534;SDS011;38443;53.164;5.802;2023-02-13T15:27:34;35.63;;;18.95;;
52534;SDS011;38443;53.164;5.802;2023-02-13T15:30:20;37.88;;;21.15;;
52534;SDS011;38443;53.164;5.802;2023-02-13T15:32:52;38.42;;;20.42;;
52534;SDS011;38443;53.164;5.802;2023-02-13T15:35:26;40.40;;;21.25;;
52534;SDS011;38443;53.164;5.802;2023-02-13T15:37:53;36.78;;;19.70;;
52534;SDS011;38443;53.164;5.802;2023-02-13T15:42:48;38.58;;;19.88;;
52534;SDS011;38443;53.164;5.802;2023-02-13T15:47:40;34.37;;;20.50;;
52534;SDS011;38443;53.164;5.802;2023-02-13T15:52:57;38.03;;;20.30;;
52534;SDS011;38443;53.164;5.802;2023-02-13T15:55:29;38.63;;;20.10;;
52534;SDS011;38443;53.164;5.802;2023-02-13T15:57:58;35.83;;;20.30;;
52534;SDS011;38443;53.164;5.802;2023-02-13T16:00:26;37.33;;;20.73;;
52534;SDS011;38443;53.164;5.802;2023-02-13T16:02:54;40.83;;;21.75;;
52534;SDS011;38443;53.164;5.802;2023-02-13T16:05:22;40.78;;;23.05;;
52534;SDS011;38443;53.164;5.802;2023-02-13T16:07:51;41.17;;;21.65;;
52534;SDS011;38443;53.164;5.802;2023-02-13T16:12:54;39.78;;;20.98;;
52534;SDS011;38443;53.164;5.802;2023-02-13T16:15:22;43.20;;;22.63;;
52534;SDS011;38443;53.164;5.802;2023-02-13T16:17:52;37.80;;;22.27;;
52534;SDS011;38443;53.164;5.802;2023-02-13T16:20:33;46.50;;;22.67;;
52534;SDS011;38443;53.164;5.802;2023-02-13T16:25:27;38.58;;;22.00;;
52534;SDS011;38443;53.164;5.802;2023-02-13T16:27:58;41.78;;;22.38;;
52534;SDS011;38443;53.164;5.802;2023-02-13T16:30:27;37.30;;;21.83;;
52534;SDS011;38443;53.164;5.802;2023-02-13T16:35:41;45.30;;;22.60;;
52534;SDS011;38443;53.164;5.802;2023-02-13T16:38:33;40.53;;;22.00;;
52534;SDS011;38443;53.164;5.802;2023-02-13T16:43:40;41.10;;;21.02;;
52534;SDS011;38443;53.164;5.802;2023-02-13T16:49:02;40.40;;;22.63;;
52534;SDS011;38443;53.164;5.802;2023-02-13T16:51:44;41.78;;;22.00;;
52534;SDS011;38443;53.164;5.802;2023-02-13T16:54:20;40.80;;;21.25;;
52534;SDS011;38443;53.164;5.802;2023-02-13T16:56:51;39.30;;;22.05;;
52534;SDS011;38443;53.164;5.802;2023-02-13T17:04:23;45.58;;;23.67;;
52534;SDS011;38443;53.164;5.802;2023-02-13T17:06:55;40.45;;;22.50;;
52534;SDS011;38443;53.164;5.802;2023-02-13T17:09:21;38.63;;;21.58;;
52534;SDS011;38443;53.164;5.802;2023-02-13T17:14:17;43.13;;;23.50;;
52534;SDS011;38443;53.164;5.802;2023-02-13T17:16:44;43.28;;;21.55;;
52534;SDS011;38443;53.164;5.802;2023-02-13T17:19:13;43.50;;;22.17;;
52534;SDS011;38443;53.164;5.802;2023-02-13T17:24:04;45.80;;;23.35;;
52534;SDS011;38443;53.164;5.802;2023-02-13T17:26:30;42.85;;;22.10;;
52534;SDS011;38443;53.164;5.802;2023-02-13T17:31:21;42.20;;;22.60;;
52534;SDS011;38443;53.164;5.802;2023-02-13T17:36:14;41.10;;;22.85;;
52534;SDS011;38443;53.164;5.802;2023-02-13T17:38:42;50.03;;;22.92;;
52534;SDS011;38443;53.164;5.802;2023-02-13T17:41:13;48.55;;;23.80;;
52534;SDS011;38443;53.164;5.802;2023-02-13T17:43:39;49.03;;;25.25;;
52534;SDS011;38443;53.164;5.802;2023-02-13T17:48:30;46.13;;;22.20;;
52534;SDS011;38443;53.164;5.802;2023-02-13T17:53:24;49.08;;;24.98;;
52534;SDS011;38443;53.164;5.802;2023-02-13T17:55:51;55.20;;;26.30;;
52534;SDS011;38443;53.164;5.802;2023-02-13T18:00:42;59.70;;;29.63;;
52534;SDS011;38443;53.164;5.802;2023-02-13T18:05:35;49.35;;;24.75;;
52534;SDS011;38443;53.164;5.802;2023-02-13T18:10:27;48.42;;;22.60;;
52534;SDS011;38443;53.164;5.802;2023-02-13T18:12:55;44.88;;;22.20;;
52534;SDS011;38443;53.164;5.802;2023-02-13T18:15:27;49.47;;;22.50;;
52534;SDS011;38443;53.164;5.802;2023-02-13T18:20:19;42.95;;;23.20;;
52534;SDS011;38443;53.164;5.802;2023-02-13T18:22:45;51.03;;;24.05;;
52534;SDS011;38443;53.164;5.802;2023-02-13T18:27:36;44.60;;;22.77;;
52534;SDS011;38443;53.164;5.802;2023-02-13T18:32:27;46.60;;;22.88;;
52534;SDS011;38443;53.164;5.802;2023-02-13T18:37:18;45.45;;;23.60;;
52534;SDS011;38443;53.164;5.802;2023-02-13T18:42:09;44.05;;;23.45;;
52534;SDS011;38443;53.164;5.802;2023-02-13T18:44:39;47.92;;;24.08;;
52534;SDS011;38443;53.164;5.802;2023-02-13T18:47:05;48.53;;;25.00;;
52534;SDS011;38443;53.164;5.802;2023-02-13T18:51:55;44.25;;;23.25;;
52534;SDS011;38443;53.164;5.802;2023-02-13T18:56:46;43.28;;;23.35;;
52534;SDS011;38443;53.164;5.802;2023-02-13T19:01:37;54.92;;;29.58;;
52534;SDS011;38443;53.164;5.802;2023-02-13T19:06:29;50.08;;;26.90;;
52534;SDS011;38443;53.164;5.802;2023-02-13T19:11:21;51.53;;;26.40;;
52534;SDS011;38443;53.164;5.802;2023-02-13T19:13:51;54.53;;;27.83;;
52534;SDS011;38443;53.164;5.802;2023-02-13T19:16:18;50.92;;;27.58;;
52534;SDS011;38443;53.164;5.802;2023-02-13T19:21:10;48.28;;;25.88;;
52534;SDS011;38443;53.164;5.802;2023-02-13T19:26:09;54.03;;;24.17;;
52534;SDS011;38443;53.164;5.802;2023-02-13T19:28:36;54.17;;;27.17;;
52534;SDS011;38443;53.164;5.802;2023-02-13T19:33:32;49.17;;;24.67;;
52534;SDS011;38443;53.164;5.802;2023-02-13T19:38:24;63.83;;;29.92;;
52534;SDS011;38443;53.164;5.802;2023-02-13T19:43:14;54.88;;;27.13;;
52534;SDS011;38443;53.164;5.802;2023-02-13T19:48:05;52.38;;;27.13;;
52534;SDS011;38443;53.164;5.802;2023-02-13T19:52:56;57.53;;;28.45;;
52534;SDS011;38443;53.164;5.802;2023-02-13T19:57:48;53.50;;;27.38;;
52534;SDS011;38443;53.164;5.802;2023-02-13T20:02:40;63.53;;;27.70;;
52534;SDS011;38443;53.164;5.802;2023-02-13T20:07:32;56.72;;;27.58;;
52534;SDS011;38443;53.164;5.802;2023-02-13T20:12:23;52.70;;;26.40;;
52534;SDS011;38443;53.164;5.802;2023-02-13T20:17:13;50.00;;;25.55;;
52534;SDS011;38443;53.164;5.802;2023-02-13T20:22:04;52.55;;;26.35;;
52534;SDS011;38443;53.164;5.802;2023-02-13T20:26:56;55.55;;;26.77;;
52534;SDS011;38443;53.164;5.802;2023-02-13T20:31:48;50.95;;;26.92;;
52534;SDS011;38443;53.164;5.802;2023-02-13T20:36:39;49.58;;;25.35;;
52534;SDS011;38443;53.164;5.802;2023-02-13T20:41:31;51.45;;;25.98;;
52534;SDS011;38443;53.164;5.802;2023-02-13T20:43:59;50.88;;;25.55;;
52534;SDS011;38443;53.164;5.802;2023-02-13T20:46:28;56.35;;;26.50;;
52534;SDS011;38443;53.164;5.802;2023-02-13T20:48:54;48.55;;;26.50;;
52534;SDS011;38443;53.164;5.802;2023-02-13T20:53:45;53.05;;;26.00;;
52534;SDS011;38443;53.164;5.802;2023-02-13T20:58:38;46.50;;;24.83;;
52534;SDS011;38443;53.164;5.802;2023-02-13T21:01:21;57.72;;;27.75;;
52534;SDS011;38443;53.164;5.802;2023-02-13T21:03:49;55.53;;;27.75;;
52534;SDS011;38443;53.164;5.802;2023-02-13T21:06:23;53.35;;;26.55;;
52534;SDS011;38443;53.164;5.802;2023-02-13T21:08:50;59.58;;;27.67;;
52534;SDS011;38443;53.164;5.802;2023-02-13T21:13:41;53.22;;;27.27;;
52534;SDS011;38443;53.164;5.802;2023-02-13T21:18:33;58.03;;;27.70;;
52534;SDS011;38443;53.164;5.802;2023-02-13T21:20:59;55.40;;;28.55;;
52534;SDS011;38443;53.164;5.802;2023-02-13T21:25:50;53.63;;;27.02;;
52534;SDS011;38443;53.164;5.802;2023-02-13T21:30:41;51.42;;;25.70;;
52534;SDS011;38443;53.164;5.802;2023-02-13T21:33:07;47.97;;;26.00;;
52534;SDS011;38443;53.164;5.802;2023-02-13T21:37:58;55.92;;;26.95;;
52534;SDS011;38443;53.164;5.802;2023-02-13T21:42:52;53.72;;;26.27;;
52534;SDS011;38443;53.164;5.802;2023-02-13T21:45:17;49.92;;;25.92;;
52534;SDS011;38443;53.164;5.802;2023-02-13T21:50:09;50.10;;;23.85;;
52534;SDS011;38443;53.164;5.802;2023-02-13T21:52:35;52.85;;;25.77;;
52534;SDS011;38443;53.164;5.802;2023-02-13T21:57:26;49.60;;;24.40;;
52534;SDS011;38443;53.164;5.802;2023-02-13T22:02:17;57.22;;;26.95;;
52534;SDS011;38443;53.164;5.802;2023-02-13T22:04:43;58.42;;;26.95;;
52534;SDS011;38443;53.164;5.802;2023-02-13T22:09:33;56.55;;;28.33;;
52534;SDS011;38443;53.164;5.802;2023-02-13T22:14:24;56.25;;;26.98;;
52534;SDS011;38443;53.164;5.802;2023-02-13T22:19:15;55.40;;;25.83;;
52534;SDS011;38443;53.164;5.802;2023-02-13T22:21:41;64.80;;;29.48;;
52534;SDS011;38443;53.164;5.802;2023-02-13T22:24:07;64.93;;;27.65;;
52534;SDS011;38443;53.164;5.802;2023-02-13T22:29:01;77.03;;;27.95;;
52534;SDS011;38443;53.164;5.802;2023-02-13T22:31:28;77.20;;;29.30;;
52534;SDS011;38443;53.164;5.802;2023-02-13T22:36:19;82.55;;;28.02;;
52534;SDS011;38443;53.164;5.802;2023-02-13T22:38:48;59.60;;;27.33;;
52534;SDS011;38443;53.164;5.802;2023-02-13T22:41:15;55.33;;;28.58;;
52534;SDS011;38443;53.164;5.802;2023-02-13T22:43:42;60.72;;;28.13;;
52534;SDS011;38443;53.164;5.802;2023-02-13T22:48:44;60.85;;;27.98;;
52534;SDS011;38443;53.164;5.802;2023-02-13T22:53:37;64.17;;;28.63;;
52534;SDS011;38443;53.164;5.802;2023-02-13T22:58:28;63.75;;;31.13;;
52534;SDS011;38443;53.164;5.802;2023-02-13T23:03:19;65.85;;;28.77;;
52534;SDS011;38443;53.164;5.802;2023-02-13T23:08:10;54.72;;;26.52;;
52534;SDS011;38443;53.164;5.802;2023-02-13T23:13:01;49.33;;;26.33;;
52534;SDS011;38443;53.164;5.802;2023-02-13T23:17:52;44.38;;;23.35;;
52534;SDS011;38443;53.164;5.802;2023-02-13T23:20:36;56.20;;;26.80;;
52534;SDS011;38443;53.164;5.802;2023-02-13T23:25:27;44.15;;;22.02;;
52534;SDS011;38443;53.164;5.802;2023-02-13T23:30:21;109.70;;;30.35;;
52534;SDS011;38443;53.164;5.802;2023-02-13T23:32:46;69.13;;;29.95;;
52534;SDS011;38443;53.164;5.802;2023-02-13T23:35:13;62.60;;;28.60;;
52534;SDS011;38443;53.164;5.802;2023-02-13T23:40:04;56.42;;;28.48;;
52534;SDS011;38443;53.164;5.802;2023-02-13T23:42:30;56.05;;;27.60;;
52534;SDS011;38443;53.164;5.802;2023-02-13T23:47:20;61.10;;;28.50;;
52534;SDS011;38443;53.164;5.802;2023-02-13T23:52:11;64.00;;;30.42;;
52534;SDS011;38443;53.164;5.802;2023-02-13T23:54:36;62.08;;;28.20;;
52534;SDS011;38443;53.164;5.802;2023-02-13T23:59:27;79.32;;;31.88;;
